Time;durP1;ratioP1;P1;durP2;ratioP2;P2;SDS_P1;SDS_P2;PMS_P1;PMS_P2;Temp;Humidity;BMP_temperature;BMP_pressure;BME280_temperature;BME280_humidity;BME280_pressure;Samples;Min_cycle;Max_cycle;Signal;HPM_P1;HPM_P2
2022/07/07 00:00:07;;;;;;;8.90;8.40;;;14.40;99.90;;;;;;5067600;28;20179;-77
2022/07/07 00:02:32;;;;;;;8.53;7.83;;;14.40;99.90;;;;;;5067119;28;20209;-78
2022/07/07 00:04:58;;;;;;;7.50;7.20;;;14.40;99.90;;;;;;5063548;28;20198;-79
2022/07/07 00:07:24;;;;;;;8.53;8.00;;;14.40;99.90;;;;;;5079987;28;20189;-81
2022/07/07 00:09:51;;;;;;;7.70;7.30;;;14.40;99.90;;;;;;5064922;28;20221;-78
2022/07/07 00:12:17;;;;;;;6.50;6.20;;;14.40;99.90;;;;;;5083343;28;20182;-78
2022/07/07 00:14:43;;;;;;;9.07;7.27;;;14.50;99.90;;;;;;5070155;28;20202;-80
2022/07/07 00:17:09;;;;;;;6.97;6.40;;;14.50;99.90;;;;;;5066359;28;20204;-77
2022/07/07 00:19:35;;;;;;;6.93;6.13;;;14.50;99.90;;;;;;5059399;28;20568;-81
2022/07/07 00:22:01;;;;;;;7.00;6.60;;;14.50;99.90;;;;;;5063597;28;20193;-78
2022/07/07 00:24:26;;;;;;;6.50;6.03;;;14.50;99.90;;;;;;5062746;28;20202;-78
2022/07/07 00:26:52;;;;;;;6.27;5.77;;;14.50;99.90;;;;;;5078450;28;20182;-78
2022/07/07 00:29:18;;;;;;;6.30;5.73;;;14.50;99.90;;;;;;5063592;28;20206;-77
2022/07/07 00:31:44;;;;;;;6.17;5.67;;;14.50;99.90;;;;;;5063027;28;20668;-78
2022/07/07 00:34:10;;;;;;;7.23;6.00;;;14.50;99.90;;;;;;5077758;28;20534;-78
2022/07/07 00:36:39;;;;;;;6.23;5.70;;;14.60;99.90;;;;;;5078060;28;20185;-77
2022/07/07 00:39:05;;;;;;;6.57;6.20;;;14.60;99.90;;;;;;5076821;28;20188;-79
2022/07/07 00:41:31;;;;;;;7.70;7.00;;;14.60;99.90;;;;;;5075838;28;20548;-78
2022/07/07 00:43:56;;;;;;;7.50;6.77;;;14.60;99.90;;;;;;5075030;28;20190;-79
2022/07/07 00:46:23;;;;;;;7.77;7.07;;;14.60;99.90;;;;;;5060341;28;20241;-79
2022/07/07 00:48:48;;;;;;;7.50;6.80;;;14.60;99.90;;;;;;5060708;28;20570;-78
2022/07/07 00:51:14;;;;;;;8.13;7.43;;;14.60;99.90;;;;;;5076099;28;20189;-79
2022/07/07 00:53:40;;;;;;;8.27;7.73;;;14.50;99.90;;;;;;5075921;28;20183;-80
2022/07/07 00:56:06;;;;;;;8.10;7.73;;;14.50;99.90;;;;;;5059874;28;20801;-80
2022/07/07 00:58:35;;;;;;;8.93;8.33;;;14.60;99.90;;;;;;5058722;28;20529;-79
2022/07/07 01:01:02;;;;;;;8.40;7.80;;;14.60;99.90;;;;;;5058056;28;20677;-78
2022/07/07 01:03:29;;;;;;;9.30;8.60;;;14.70;99.90;;;;;;5065850;28;20701;-78
2022/07/07 01:05:56;;;;;;;9.33;8.83;;;14.70;99.90;;;;;;5083707;28;20233;-79
2022/07/07 01:08:21;;;;;;;10.23;9.53;;;14.70;99.90;;;;;;5085510;28;20228;-79
2022/07/07 01:10:47;;;;;;;8.57;7.83;;;14.70;99.90;;;;;;5090542;28;20202;-79
2022/07/07 01:13:13;;;;;;;9.20;8.70;;;14.70;99.90;;;;;;5069087;28;20671;-79
2022/07/07 01:15:39;;;;;;;11.53;10.87;;;14.70;99.90;;;;;;5064530;28;20202;-79
2022/07/07 01:18:06;;;;;;;10.63;9.93;;;14.80;99.90;;;;;;5063493;28;20189;-80
2022/07/07 01:20:33;;;;;;;11.07;10.47;;;14.80;99.90;;;;;;5063001;28;20189;-80
2022/07/07 01:22:58;;;;;;;14.27;13.10;;;14.80;99.90;;;;;;5065126;28;20183;-80
2022/07/07 01:25:24;;;;;;;14.57;13.77;;;14.80;99.90;;;;;;5062940;28;20221;-80
2022/07/07 01:27:51;;;;;;;14.70;13.93;;;14.80;99.90;;;;;;5056635;28;20210;-77
2022/07/07 01:30:18;;;;;;;15.53;14.73;;;14.80;99.90;;;;;;5067491;28;20185;-78
2022/07/07 01:32:44;;;;;;;15.30;14.30;;;14.80;99.90;;;;;;5063725;28;20529;-79
2022/07/07 01:35:11;;;;;;;14.40;13.57;;;14.80;99.90;;;;;;5057016;28;20263;-77
2022/07/07 01:37:37;;;;;;;9.27;8.50;;;14.70;99.90;;;;;;5058714;28;20185;-79
2022/07/07 01:40:03;;;;;;;9.77;9.27;;;14.70;99.90;;;;;;5062552;28;20182;-80
2022/07/07 01:42:29;;;;;;;9.80;9.20;;;14.70;99.90;;;;;;5059478;28;20234;-79
2022/07/07 01:44:55;;;;;;;10.73;10.03;;;14.60;99.90;;;;;;5059395;28;20287;-79
2022/07/07 01:47:23;;;;;;;12.00;11.30;;;14.70;99.90;;;;;;5058875;28;20186;-78
2022/07/07 01:49:49;;;;;;;11.53;10.77;;;14.50;99.90;;;;;;5063521;28;20332;-79
2022/07/07 01:52:16;;;;;;;7.70;7.10;;;14.40;99.90;;;;;;5062916;28;20186;-79
2022/07/07 01:54:42;;;;;;;6.93;6.63;;;14.40;99.90;;;;;;5077237;28;20629;-79
2022/07/07 01:57:09;;;;;;;7.57;6.77;;;14.40;99.90;;;;;;5062331;28;20217;-79
2022/07/07 01:59:36;;;;;;;6.50;6.20;;;14.50;99.90;;;;;;5061080;28;20190;-77
2022/07/07 02:02:02;;;;;;;6.63;6.30;;;14.50;99.90;;;;;;5088488;28;20182;-79
2022/07/07 02:04:28;;;;;;;6.90;6.50;;;14.60;99.90;;;;;;5063912;28;20217;-79
2022/07/07 02:06:54;;;;;;;10.97;8.40;;;14.60;99.90;;;;;;5058808;28;20190;-79
2022/07/07 02:09:20;;;;;;;8.67;8.20;;;14.60;99.90;;;;;;5057685;28;20210;-79
2022/07/07 02:11:46;;;;;;;11.53;10.87;;;14.60;99.90;;;;;;5062543;28;20189;-79
2022/07/07 02:14:12;;;;;;;12.50;11.90;;;14.60;99.90;;;;;;5059185;28;20170;-80
2022/07/07 02:16:38;;;;;;;11.03;10.03;;;14.60;99.90;;;;;;5065438;28;20181;-79
2022/07/07 02:19:06;;;;;;;12.90;12.10;;;14.60;99.90;;;;;;5062445;28;20186;-79
2022/07/07 02:21:32;;;;;;;12.50;11.70;;;14.60;99.90;;;;;;5062650;28;20677;-79
2022/07/07 02:23:59;;;;;;;11.40;10.77;;;14.60;99.90;;;;;;5060471;28;20639;-79
2022/07/07 02:26:25;;;;;;;9.43;8.93;;;14.50;99.90;;;;;;5062121;28;20344;-79
2022/07/07 02:28:51;;;;;;;10.23;9.53;;;14.50;99.90;;;;;;5058996;28;20221;-79
2022/07/07 02:31:18;;;;;;;14.83;13.90;;;14.40;99.90;;;;;;5060770;28;20185;-78
2022/07/07 02:33:45;;;;;;;19.17;17.97;;;14.40;99.90;;;;;;5060492;28;20189;-79
2022/07/07 02:36:11;;;;;;;58.03;55.00;;;14.40;99.90;;;;;;5060023;28;20755;-79
2022/07/07 02:38:37;;;;;;;58.30;54.97;;;14.40;99.90;;;;;;5059461;28;20200;-79
2022/07/07 02:41:04;;;;;;;68.27;64.80;;;14.40;99.90;;;;;;5058935;28;20178;-79
2022/07/07 02:43:30;;;;;;;89.00;84.20;;;14.40;99.90;;;;;;5058049;28;20182;-79
2022/07/07 02:45:56;;;;;;;85.83;81.17;;;14.40;99.90;;;;;;5065964;28;20276;-79
2022/07/07 02:48:24;;;;;;;13.67;12.63;;;14.40;99.90;;;;;;5060119;28;20209;-79
2022/07/07 02:50:50;;;;;;;7.30;6.90;;;14.40;99.90;;;;;;5061745;28;20182;-79
2022/07/07 02:53:17;;;;;;;7.37;6.83;;;14.40;99.90;;;;;;5065296;28;20167;-78
2022/07/07 02:55:43;;;;;;;9.87;9.00;;;14.40;99.90;;;;;;5075510;28;20214;-79
2022/07/07 02:58:10;;;;;;;9.77;8.87;;;14.50;99.90;;;;;;5065654;28;20551;-79
2022/07/07 03:00:36;;;;;;;7.60;6.90;;;14.50;99.90;;;;;;5062395;28;20181;-79
2022/07/07 03:03:03;;;;;;;9.37;7.93;;;14.40;99.90;;;;;;5076756;28;20541;-79
2022/07/07 03:05:30;;;;;;;9.13;8.33;;;14.50;99.90;;;;;;5061500;28;20202;-79
2022/07/07 03:07:56;;;;;;;9.47;8.67;;;14.50;99.90;;;;;;5061588;28;20224;-80
2022/07/07 03:10:22;;;;;;;10.90;10.23;;;14.40;99.90;;;;;;5076579;28;20170;-79
2022/07/07 03:12:49;;;;;;;11.87;10.97;;;14.40;99.90;;;;;;5062420;28;20186;-79
2022/07/07 03:15:15;;;;;;;17.47;16.57;;;14.40;99.90;;;;;;5075734;28;20729;-78
2022/07/07 03:17:42;;;;;;;25.87;24.57;;;14.40;99.90;;;;;;5057690;28;20179;-79
2022/07/07 03:20:10;;;;;;;16.63;15.70;;;14.40;99.90;;;;;;5059165;28;20557;-79
2022/07/07 03:22:39;;;;;;;14.50;13.53;;;14.40;99.90;;;;;;5069108;28;20413;-78
2022/07/07 03:25:07;;;;;;;33.27;31.50;;;14.40;99.90;;;;;;5061753;28;20194;-78
2022/07/07 03:27:33;;;;;;;34.33;32.53;;;14.40;99.90;;;;;;5077856;28;20637;-78
2022/07/07 03:30:00;;;;;;;23.97;22.57;;;14.40;99.90;;;;;;5065646;28;20179;-77
2022/07/07 03:32:26;;;;;;;28.77;27.23;;;14.40;99.90;;;;;;5068217;28;20208;-78
2022/07/07 03:34:52;;;;;;;31.03;29.13;;;14.50;99.90;;;;;;5067403;28;20202;-80
2022/07/07 03:37:17;;;;;;;37.37;35.17;;;14.40;99.90;;;;;;5066051;28;20197;-78
2022/07/07 03:39:43;;;;;;;23.60;22.30;;;14.40;99.90;;;;;;5067507;28;20312;-78
2022/07/07 03:42:09;;;;;;;11.83;10.73;;;14.40;99.90;;;;;;5069104;28;20248;-78
2022/07/07 03:44:35;;;;;;;10.07;9.37;;;14.50;99.90;;;;;;5068339;28;20244;-79
2022/07/07 03:47:01;;;;;;;8.60;7.97;;;14.60;99.90;;;;;;5066282;28;20553;-79
2022/07/07 03:49:26;;;;;;;10.17;9.47;;;14.60;99.90;;;;;;5066219;28;20682;-79
2022/07/07 03:51:52;;;;;;;11.77;10.93;;;14.70;99.90;;;;;;5067466;28;20206;-79
2022/07/07 03:54:18;;;;;;;26.93;25.37;;;14.70;99.90;;;;;;5067967;28;20181;-78
2022/07/07 03:56:44;;;;;;;38.37;36.10;;;14.70;99.90;;;;;;5066913;28;20181;-78
2022/07/07 03:59:10;;;;;;;41.00;38.77;;;14.70;99.90;;;;;;5070168;28;20166;-77
2022/07/07 04:01:36;;;;;;;25.97;24.50;;;14.70;99.90;;;;;;5073118;28;20183;-78
2022/07/07 04:04:04;;;;;;;24.53;23.27;;;14.80;99.90;;;;;;5069356;28;20243;-78
2022/07/07 04:06:31;;;;;;;28.00;26.43;;;14.80;99.90;;;;;;5063936;28;20190;-78
2022/07/07 04:08:58;;;;;;;59.77;56.43;;;14.90;99.90;;;;;;5066042;28;20278;-79
2022/07/07 04:11:24;;;;;;;61.87;58.60;;;14.90;99.90;;;;;;5066229;28;20190;-73
2022/07/07 04:14:45;;;;;;;74.73;70.93;;;15.00;99.90;;;;;;5088566;27;20599;-73
2022/07/07 04:17:11;;;;;;;74.73;71.00;;;15.00;99.90;;;;;;5087637;28;20177;-74
2022/07/07 04:19:39;;;;;;;73.03;68.97;;;15.10;99.90;;;;;;5079262;28;20219;-71
2022/07/07 04:23:43;;;;;;;77.50;73.37;;;15.20;99.90;;;;;;5128941;27;20542;-73
2022/07/07 04:26:09;;;;;;;56.87;53.63;;;15.30;99.90;;;;;;5129139;27;20776;-73
2022/07/07 04:28:35;;;;;;;29.97;28.30;;;15.30;99.90;;;;;;5126711;28;20175;-73
2022/07/07 04:31:00;;;;;;;33.43;31.73;;;15.40;99.90;;;;;;5128750;27;20176;-73
2022/07/07 04:33:26;;;;;;;30.37;28.67;;;15.40;99.90;;;;;;5128768;27;20179;-74
2022/07/07 04:35:52;;;;;;;16.33;15.43;;;15.40;99.90;;;;;;5128913;27;20207;-73
2022/07/07 04:38:18;;;;;;;25.17;23.77;;;15.40;99.90;;;;;;5139086;27;20170;-73
2022/07/07 04:40:43;;;;;;;19.03;17.77;;;15.40;99.90;;;;;;5138721;27;20690;-73
2022/07/07 04:43:09;;;;;;;8.67;8.10;;;15.50;99.90;;;;;;5128582;27;20353;-73
2022/07/07 04:45:35;;;;;;;8.20;7.50;;;15.50;99.90;;;;;;5128081;27;20287;-73
2022/07/07 04:48:01;;;;;;;9.63;7.30;;;15.50;99.90;;;;;;5128027;27;20320;-73
2022/07/07 04:50:27;;;;;;;8.27;7.40;;;15.50;99.90;;;;;;5127317;28;20179;-73
2022/07/07 04:52:53;;;;;;;8.70;8.20;;;15.60;99.90;;;;;;5128008;28;20228;-73
2022/07/07 04:55:19;;;;;;;8.63;7.93;;;15.70;99.90;;;;;;5128446;27;20284;-73
2022/07/07 04:57:45;;;;;;;8.70;7.80;;;15.80;99.90;;;;;;5127737;27;20216;-73
2022/07/07 05:00:11;;;;;;;8.47;7.60;;;15.90;99.90;;;;;;5127877;27;20176;-73
2022/07/07 05:02:37;;;;;;;8.77;7.97;;;16.00;99.90;;;;;;5128509;27;20199;-74
2022/07/07 05:05:06;;;;;;;9.20;8.63;;;16.00;99.90;;;;;;5128922;28;20725;-82
2022/07/07 05:07:32;;;;;;;8.33;7.63;;;16.10;99.90;;;;;;5143872;27;20175;-81
2022/07/07 05:09:58;;;;;;;6.97;6.33;;;16.20;99.90;;;;;;5144689;28;20648;-80
2022/07/07 05:12:24;;;;;;;9.60;8.27;;;16.30;99.90;;;;;;5144775;27;20180;-80
2022/07/07 05:14:50;;;;;;;13.07;12.07;;;16.30;99.90;;;;;;5141246;28;20204;-80
2022/07/07 05:17:16;;;;;;;18.10;17.20;;;16.30;99.90;;;;;;5142147;28;20186;-79
2022/07/07 05:19:42;;;;;;;22.40;21.23;;;16.30;99.90;;;;;;5143664;27;20192;-79
2022/07/07 05:22:08;;;;;;;59.33;56.43;;;16.60;99.90;;;;;;5141859;28;20212;-80
2022/07/07 05:24:34;;;;;;;46.47;43.63;;;16.90;99.90;;;;;;5141078;28;20271;-80
2022/07/07 05:27:00;;;;;;;37.73;35.70;;;17.20;99.90;;;;;;5140142;27;20193;-80
2022/07/07 05:29:26;;;;;;;48.77;46.30;;;17.20;99.90;;;;;;5141269;27;20199;-79
2022/07/07 05:31:53;;;;;;;44.10;41.70;;;17.20;99.90;;;;;;5137683;28;20652;-79
2022/07/07 05:34:19;;;;;;;44.63;42.07;;;17.30;99.90;;;;;;5128397;28;20184;-79
2022/07/07 05:36:44;;;;;;;64.80;61.33;;;17.40;99.90;;;;;;5124788;28;20187;-79
2022/07/07 05:39:13;;;;;;;76.40;72.37;;;17.50;99.90;;;;;;5125226;28;20664;-80
2022/07/07 05:41:40;;;;;;;72.60;68.53;;;17.70;99.90;;;;;;5124726;28;20675;-79
2022/07/07 05:44:05;;;;;;;58.97;55.83;;;17.80;99.90;;;;;;5123422;28;20198;-80
2022/07/07 05:46:31;;;;;;;39.60;37.70;;;17.90;99.90;;;;;;5082764;22;20226;-76
2022/07/07 05:48:57;;;;;;;11.57;10.73;;;18.10;99.90;;;;;;5053179;28;20182;-75
2022/07/07 05:51:23;;;;;;;5.83;5.33;;;18.10;99.90;;;;;;5054657;28;20236;-75
2022/07/07 05:53:49;;;;;;;9.33;5.47;;;18.20;99.90;;;;;;5069685;28;20642;-74
2022/07/07 05:56:15;;;;;;;5.60;5.20;;;18.30;99.90;;;;;;5052231;28;20195;-74
2022/07/07 05:58:41;;;;;;;7.83;5.87;;;18.30;99.90;;;;;;5052360;28;20186;-76
2022/07/07 06:01:07;;;;;;;6.10;5.57;;;18.40;99.90;;;;;;5053228;28;20188;-76
2022/07/07 06:03:32;;;;;;;6.50;6.00;;;18.40;99.90;;;;;;5051784;28;20225;-76
2022/07/07 06:05:58;;;;;;;5.47;5.17;;;18.40;99.90;;;;;;5052940;28;20199;-75
2022/07/07 06:08:25;;;;;;;5.73;5.33;;;18.40;99.90;;;;;;5051060;28;20643;-76
2022/07/07 06:10:50;;;;;;;6.07;5.57;;;18.40;99.90;;;;;;5052239;28;20236;-75
2022/07/07 06:13:16;;;;;;;15.37;6.70;;;18.40;99.90;;;;;;5052969;28;20182;-75
2022/07/07 06:15:42;;;;;;;9.83;9.00;;;19.00;99.90;;;;;;5051846;28;20202;-75
2022/07/07 06:18:08;;;;;;;9.83;9.23;;;19.60;99.90;;;;;;5052571;28;20297;-74
2022/07/07 06:20:34;;;;;;;10.20;9.57;;;19.60;99.90;;;;;;5058201;28;20182;-74
2022/07/07 06:22:59;;;;;;;12.60;11.80;;;20.00;99.90;;;;;;5058375;28;20594;-75
2022/07/07 06:25:28;;;;;;;16.55;15.55;;;20.50;99.90;;;;;;5052854;28;20194;-76
2022/07/07 06:27:54;;;;;;;18.30;17.23;;;21.60;99.90;;;;;;5051834;28;20182;-75
2022/07/07 06:30:20;;;;;;;5.78;5.15;;;22.80;99.90;;;;;;5051614;28;20189;-74
2022/07/07 06:32:46;;;;;;;6.93;6.43;;;23.40;99.90;;;;;;5052491;28;20186;-74
2022/07/07 06:35:13;;;;;;;5.88;5.38;;;23.40;99.70;;;;;;5052525;28;20701;-74
2022/07/07 06:37:39;;;;;;;5.57;4.90;;;22.80;99.50;;;;;;5050537;28;20182;-74
2022/07/07 06:42:37;;;;;;;4.80;4.40;;;22.30;99.80;;;;;;5129280;27;20994;-75
2022/07/07 06:45:06;;;;;;;5.00;4.60;;;22.40;99.90;;;;;;5129211;27;20196;-75
2022/07/07 06:47:32;;;;;;;6.25;5.93;;;22.90;99.10;;;;;;5128365;27;20195;-75
2022/07/07 06:49:58;;;;;;;9.27;7.45;;;23.10;97.70;;;;;;5129457;27;20180;-75
2022/07/07 06:52:24;;;;;;;8.77;8.18;;;23.00;97.30;;;;;;5129173;27;20186;-75
2022/07/07 06:54:50;;;;;;;10.65;10.05;;;23.60;96.40;;;;;;5125593;22;20230;-79
2022/07/07 06:57:16;;;;;;;12.63;11.60;;;23.60;95.80;;;;;;5064149;28;20569;-79
2022/07/07 06:59:41;;;;;;;14.40;13.57;;;23.30;96.20;;;;;;5082402;28;20178;-79
2022/07/07 07:02:07;;;;;;;11.75;11.15;;;23.60;96.30;;;;;;5081233;28;20209;-79
2022/07/07 07:04:33;;;;;;;12.07;11.18;;;23.70;95.80;;;;;;5063261;28;20212;-79
2022/07/07 07:06:59;;;;;;;11.18;10.57;;;23.50;95.70;;;;;;5081884;28;20197;-80
2022/07/07 07:09:25;;;;;;;14.52;13.82;;;22.90;95.90;;;;;;5083847;28;20182;-80
2022/07/07 07:11:51;;;;;;;12.85;12.18;;;22.30;97.30;;;;;;5083300;28;20791;-80
2022/07/07 07:14:17;;;;;;;6.13;5.63;;;21.80;98.40;;;;;;5064844;28;20205;-79
2022/07/07 07:16:43;;;;;;;5.15;4.88;;;21.40;98.50;;;;;;5063927;28;20190;-80
2022/07/07 07:19:09;;;;;;;9.18;8.57;;;21.20;99.70;;;;;;5082455;28;20182;-77
2022/07/07 07:21:34;;;;;;;8.13;7.35;;;21.00;99.90;;;;;;5086308;28;20209;-78
2022/07/07 07:24:00;;;;;;;9.80;8.95;;;20.90;99.90;;;;;;5085144;28;20205;-78
2022/07/07 07:26:26;;;;;;;10.48;9.93;;;20.90;99.90;;;;;;5084813;28;20185;-79
2022/07/07 07:28:52;;;;;;;10.43;9.68;;;20.80;99.90;;;;;;5082148;28;20185;-81
2022/07/07 07:31:18;;;;;;;9.05;8.48;;;20.80;99.90;;;;;;5082918;28;20170;-78
2022/07/07 07:33:44;;;;;;;11.30;10.77;;;20.80;99.90;;;;;;5064241;28;20192;-80
2022/07/07 07:36:11;;;;;;;15.43;14.63;;;20.80;99.90;;;;;;5064531;28;20253;-81
2022/07/07 07:39:42;;;;;;;11.80;11.30;;;20.80;99.90;;;;;;5143756;27;20345;-79
2022/07/07 07:42:08;;;;;;;12.93;11.27;;;21.00;99.90;;;;;;5125308;28;20179;-79
2022/07/07 07:47:18;;;;;;;6.95;6.38;;;21.90;99.90;;;;;;5142248;28;20457;-79
2022/07/07 07:49:44;;;;;;;7.75;6.97;;;22.50;99.90;;;;;;5144639;28;20180;-79
2022/07/07 07:52:10;;;;;;;7.03;6.53;;;22.90;99.60;;;;;;5120633;22;20233;-74
2022/07/07 07:54:35;;;;;;;5.80;5.15;;;23.10;99.10;;;;;;5050217;28;20178;-74
2022/07/07 07:57:01;;;;;;;6.57;5.93;;;23.10;98.30;;;;;;5049288;28;20217;-74
2022/07/07 07:59:28;;;;;;;5.95;5.53;;;23.20;98.60;;;;;;5067343;28;20217;-75
2022/07/07 08:01:54;;;;;;;7.53;7.13;;;23.40;97.80;;;;;;5067699;28;20220;-75
2022/07/07 08:04:20;;;;;;;7.57;6.85;;;23.20;97.70;;;;;;5067841;28;20215;-75
2022/07/07 08:06:45;;;;;;;5.40;5.10;;;23.10;98.30;;;;;;5049269;28;20578;-75
2022/07/07 08:09:11;;;;;;;9.50;7.03;;;22.80;99.30;;;;;;5049977;28;20708;-75
2022/07/07 08:11:37;;;;;;;7.38;6.88;;;22.50;99.90;;;;;;5068090;28;20205;-74
2022/07/07 08:14:03;;;;;;;7.80;6.88;;;22.30;99.90;;;;;;5050952;28;20626;-74
2022/07/07 08:16:29;;;;;;;6.78;6.18;;;22.20;99.90;;;;;;5067556;28;20243;-75
2022/07/07 08:18:54;;;;;;;9.25;8.57;;;22.00;99.90;;;;;;5066678;28;20237;-75
2022/07/07 08:21:20;;;;;;;11.25;8.27;;;22.00;99.90;;;;;;5067707;28;20221;-75
2022/07/07 08:23:46;;;;;;;10.63;9.73;;;21.50;99.90;;;;;;5067277;28;20652;-74
2022/07/07 08:26:12;;;;;;;38.38;36.42;;;21.40;99.90;;;;;;5067272;28;20235;-75
2022/07/07 08:28:39;;;;;;;41.33;39.25;;;21.40;99.90;;;;;;5048396;28;20269;-74
2022/07/07 08:31:06;;;;;;;36.90;34.97;;;21.60;99.90;;;;;;5067257;28;20210;-75
2022/07/07 08:33:33;;;;;;;39.95;37.35;;;21.90;99.90;;;;;;5067035;28;20181;-75
2022/07/07 08:35:59;;;;;;;28.88;27.33;;;22.10;99.90;;;;;;5067147;28;20182;-75
2022/07/07 08:38:25;;;;;;;25.35;23.95;;;22.00;99.90;;;;;;5049719;28;20205;-74
2022/07/07 08:40:51;;;;;;;36.15;34.15;;;21.70;99.90;;;;;;5070326;28;20173;-76
2022/07/07 08:43:18;;;;;;;36.95;34.75;;;21.50;99.90;;;;;;5049693;28;20188;-76
2022/07/07 08:45:46;;;;;;;34.58;32.38;;;21.40;99.90;;;;;;5067487;28;20575;-75
2022/07/07 08:48:11;;;;;;;21.83;20.30;;;21.20;99.90;;;;;;5066016;28;20181;-75
2022/07/07 08:50:38;;;;;;;6.13;5.80;;;21.10;99.90;;;;;;5038293;28;20186;-76
2022/07/07 08:53:08;;;;;;;5.75;4.95;;;20.90;99.90;;;;;;5053783;28;20276;-74
2022/07/07 08:55:36;;;;;;;6.22;5.15;;;20.70;99.90;;;;;;5035760;28;20193;-76
2022/07/07 08:58:03;;;;;;;5.38;4.25;;;20.60;99.90;;;;;;5052594;28;20202;-75
2022/07/07 09:00:29;;;;;;;6.75;6.20;;;20.50;99.90;;;;;;5035983;28;20178;-75
2022/07/07 09:02:58;;;;;;;8.68;8.15;;;20.50;99.90;;;;;;5053562;28;20229;-75
2022/07/07 09:05:27;;;;;;;9.48;8.73;;;20.50;99.90;;;;;;5053450;28;20269;-75
2022/07/07 09:07:53;;;;;;;9.77;8.98;;;20.40;99.90;;;;;;5052347;28;20188;-75
2022/07/07 09:10:34;;;;;;;7.60;6.32;;;20.40;99.90;;;;;;5053692;28;20228;-75
2022/07/07 09:13:01;;;;;;;8.82;8.02;;;20.40;99.90;;;;;;5035219;28;20245;-75
2022/07/07 09:15:27;;;;;;;5.80;5.40;;;20.50;99.90;;;;;;5053231;28;20178;-75
2022/07/07 09:17:54;;;;;;;6.30;5.80;;;20.60;99.90;;;;;;5034423;28;20228;-74
2022/07/07 09:20:19;;;;;;;8.48;4.93;;;20.70;99.90;;;;;;5035318;28;20208;-75
2022/07/07 09:22:56;;;;;;;7.05;6.55;;;20.80;99.90;;;;;;5052814;28;20199;-75
2022/07/07 09:25:24;;;;;;;6.20;5.75;;;20.80;99.90;;;;;;5053108;28;20185;-75
2022/07/07 09:28:05;;;;;;;7.22;5.22;;;20.90;99.90;;;;;;5052233;28;20174;-74
2022/07/07 09:30:33;;;;;;;5.75;5.45;;;20.90;99.90;;;;;;5052897;28;20554;-75
2022/07/07 09:33:02;;;;;;;5.88;5.50;;;20.80;99.90;;;;;;5034866;28;20198;-75
2022/07/07 09:38:22;;;;;;;8.18;7.47;;;20.30;99.90;;;;;;5052109;28;20217;-75
2022/07/07 09:41:05;;;;;;;8.65;8.00;;;20.10;99.90;;;;;;5052611;28;20643;-74
2022/07/07 09:43:46;;;;;;;8.27;7.65;;;20.10;99.90;;;;;;5034831;28;20182;-76
2022/07/07 09:46:14;;;;;;;7.20;6.70;;;20.30;99.90;;;;;;5052796;28;20185;-74
2022/07/07 09:48:43;;;;;;;7.30;6.80;;;20.80;99.90;;;;;;5051758;28;20210;-75
2022/07/07 09:51:25;;;;;;;5.72;4.72;;;21.30;99.90;;;;;;5052322;28;20214;-76
2022/07/07 09:53:59;;;;;;;13.15;10.25;;;21.90;99.90;;;;;;5052347;28;20187;-76
2022/07/07 09:56:31;;;;;;;23.73;22.13;;;22.30;99.90;;;;;;5052467;28;20224;-76
2022/07/07 09:58:58;;;;;;;26.75;25.38;;;22.30;99.90;;;;;;5060343;28;20220;-76
2022/07/07 10:01:30;;;;;;;15.38;14.10;;;22.00;99.90;;;;;;5036505;28;20459;-76
2022/07/07 10:04:02;;;;;;;6.47;5.95;;;21.40;99.90;;;;;;5052233;28;20182;-75
2022/07/07 10:06:30;;;;;;;6.40;6.10;;;20.90;99.90;;;;;;5052183;28;20171;-74
2022/07/07 10:09:07;;;;;;;9.05;8.35;;;20.70;99.90;;;;;;5051226;28;20227;-75
2022/07/07 10:11:45;;;;;;;7.35;6.85;;;20.40;99.90;;;;;;5052065;28;20206;-76
2022/07/07 10:14:17;;;;;;;13.37;12.47;;;20.20;99.90;;;;;;5034396;28;20190;-74
2022/07/07 10:16:45;;;;;;;15.93;14.90;;;20.10;99.90;;;;;;5033690;28;20210;-74
2022/07/07 10:19:13;;;;;;;23.23;21.80;;;20.00;99.90;;;;;;5051705;28;20209;-75
2022/07/07 10:21:43;;;;;;;18.48;17.30;;;19.90;99.90;;;;;;5051758;28;20757;-75
2022/07/07 10:24:11;;;;;;;8.43;7.73;;;19.80;99.90;;;;;;5051944;28;20647;-75
2022/07/07 10:26:58;;;;;;;6.63;6.10;;;19.70;99.90;;;;;;5051889;28;20256;-75
2022/07/07 10:29:42;;;;;;;6.70;6.30;;;19.70;99.90;;;;;;5051758;28;20216;-75
2022/07/07 10:32:10;;;;;;;6.63;6.17;;;19.80;99.90;;;;;;5051457;28;20202;-75
2022/07/07 10:34:38;;;;;;;5.63;5.33;;;20.00;99.90;;;;;;5065306;28;20316;-75
2022/07/07 10:37:06;;;;;;;11.45;10.75;;;20.30;99.90;;;;;;5062385;28;20264;-75
2022/07/07 10:39:35;;;;;;;11.30;10.27;;;20.60;99.90;;;;;;5051455;28;20633;-76
2022/07/07 10:42:23;;;;;;;11.35;10.52;;;21.10;99.90;;;;;;5051378;28;20202;-75
2022/07/07 10:44:51;;;;;;;7.53;7.03;;;21.70;99.90;;;;;;5032764;28;20178;-75
2022/07/07 10:47:17;;;;;;;7.60;7.20;;;22.30;99.90;;;;;;5050774;28;20296;-76
2022/07/07 10:49:54;;;;;;;6.50;6.20;;;22.70;99.90;;;;;;5051311;28;20651;-75
2022/07/07 10:52:25;;;;;;;4.95;4.75;;;22.70;99.90;;;;;;5035963;28;20608;-75
2022/07/07 10:54:52;;;;;;;5.60;5.30;;;22.60;99.90;;;;;;5062047;28;20186;-75
2022/07/07 10:57:19;;;;;;;5.18;4.78;;;22.30;99.90;;;;;;5052929;28;20178;-75
2022/07/07 11:00:09;;;;;;;6.38;5.95;;;22.20;99.90;;;;;;5035131;28;20285;-75
2022/07/07 11:02:44;;;;;;;5.57;5.28;;;22.10;99.90;;;;;;5033448;28;20202;-75
2022/07/07 11:05:13;;;;;;;6.47;6.05;;;22.20;99.90;;;;;;5051260;28;20189;-75
2022/07/07 11:07:40;;;;;;;5.75;5.35;;;22.00;99.90;;;;;;5050193;28;20177;-76
2022/07/07 11:10:06;;;;;;;6.00;5.47;;;22.10;99.90;;;;;;5051251;28;20183;-76
2022/07/07 11:12:37;;;;;;;8.35;7.53;;;22.20;99.90;;;;;;5050703;28;20559;-76
2022/07/07 11:15:17;;;;;;;6.13;5.82;;;22.20;99.90;;;;;;5051410;28;20175;-76
2022/07/07 11:17:53;;;;;;;4.32;4.13;;;21.80;99.90;;;;;;5049994;28;20206;-75
2022/07/07 11:20:20;;;;;;;5.03;4.65;;;21.90;99.90;;;;;;5033235;28;20178;-75
2022/07/07 11:22:52;;;;;;;5.05;4.75;;;21.90;99.90;;;;;;5050894;28;20212;-76
2022/07/07 11:25:20;;;;;;;6.68;4.95;;;21.90;99.90;;;;;;5050795;28;20251;-74
2022/07/07 11:27:48;;;;;;;5.70;5.40;;;21.90;99.90;;;;;;5032125;28;20188;-74
2022/07/07 11:30:14;;;;;;;6.40;6.10;;;21.80;99.90;;;;;;5050778;28;20187;-74
2022/07/07 11:32:42;;;;;;;6.10;5.70;;;21.90;99.90;;;;;;5050615;28;20209;-74
2022/07/07 11:35:09;;;;;;;7.10;6.25;;;21.90;99.90;;;;;;5051642;28;20267;-75
2022/07/07 11:37:38;;;;;;;6.45;6.10;;;21.70;99.90;;;;;;5050505;28;20556;-75
2022/07/07 11:40:21;;;;;;;6.68;6.32;;;21.60;99.90;;;;;;5050715;28;20178;-75
2022/07/07 11:42:48;;;;;;;6.35;6.05;;;21.50;99.90;;;;;;5033176;28;20225;-75
2022/07/07 11:45:22;;;;;;;7.63;7.03;;;21.30;99.90;;;;;;5051082;28;20178;-74
2022/07/07 11:47:49;;;;;;;6.60;6.18;;;21.30;99.90;;;;;;5066786;28;20174;-73
2022/07/07 11:50:16;;;;;;;6.57;6.25;;;21.20;99.90;;;;;;5064928;28;20182;-74
2022/07/07 11:52:52;;;;;;;8.30;7.22;;;21.20;99.90;;;;;;5035359;28;20213;-75
2022/07/07 11:55:19;;;;;;;6.85;6.25;;;21.30;99.90;;;;;;5033014;28;20228;-75
2022/07/07 11:58:03;;;;;;;6.43;6.05;;;21.30;99.90;;;;;;5050139;28;20210;-75
2022/07/07 12:00:34;;;;;;;7.03;6.57;;;21.40;99.90;;;;;;5032799;28;20181;-75
2022/07/07 12:03:01;;;;;;;7.55;6.68;;;21.60;99.90;;;;;;5050394;28;20199;-75
2022/07/07 12:05:30;;;;;;;8.20;7.32;;;21.50;99.90;;;;;;5050667;28;20197;-75
2022/07/07 12:08:00;;;;;;;5.20;4.90;;;21.30;99.90;;;;;;5032178;28;20209;-74
2022/07/07 12:10:31;;;;;;;5.88;5.53;;;21.20;99.90;;;;;;5062365;28;20179;-72
2022/07/07 12:13:02;;;;;;;6.45;6.05;;;21.30;99.90;;;;;;5064988;28;20213;-75
2022/07/07 12:15:31;;;;;;;7.20;6.63;;;21.50;99.90;;;;;;5050324;28;20564;-74
2022/07/07 12:17:57;;;;;;;6.43;5.93;;;21.80;99.90;;;;;;5049378;28;20233;-74
2022/07/07 12:20:24;;;;;;;6.32;5.65;;;22.20;99.90;;;;;;5050866;28;20186;-75
2022/07/07 12:22:54;;;;;;;5.20;4.82;;;22.30;99.90;;;;;;5050538;28;20802;-75
2022/07/07 12:25:23;;;;;;;6.75;4.68;;;22.60;99.90;;;;;;5052344;28;20194;-73
2022/07/07 12:27:53;;;;;;;32.55;30.95;;;23.20;99.90;;;;;;5035876;28;20197;-75
2022/07/07 12:30:19;;;;;;;39.53;37.22;;;23.50;99.90;;;;;;5054575;28;20193;-75
2022/07/07 12:32:46;;;;;;;39.50;37.50;;;23.70;99.90;;;;;;5036117;28;20698;-74
2022/07/07 12:35:34;;;;;;;16.98;15.75;;;23.90;99.90;;;;;;5053861;28;20188;-74
2022/07/07 12:38:02;;;;;;;16.10;15.05;;;23.80;99.90;;;;;;5035585;28;20214;-75
2022/07/07 12:40:30;;;;;;;10.20;9.48;;;23.80;99.90;;;;;;5053714;28;20178;-75
2022/07/07 12:42:57;;;;;;;9.65;9.23;;;24.10;99.90;;;;;;5035842;28;20205;-75
2022/07/07 12:45:23;;;;;;;8.73;8.05;;;24.00;99.90;;;;;;5053732;28;20265;-75
2022/07/07 12:47:51;;;;;;;7.47;6.97;;;23.60;99.90;;;;;;5035108;28;20232;-73
2022/07/07 12:50:18;;;;;;;10.15;9.60;;;23.10;99.90;;;;;;5063290;28;20183;-74